Terminal Aerodrome Forecast
Issued by NWS

Home | Current Version | Previous Version | Text Only | Print | Product List | Glossary On
Versions: 1 2 3 4 5 6 7 8 9 10 11 12 13
000
FTUS43 KICT 251947 AAA
TAFCNU
TAF AMD
KCNU 251947Z 2520/2618 17011KT P6SM SCT045
     FM260400 13004KT P6SM SHRA VCTS BKN010 OVC025CB
     FM261200 03005KT 6SM SHRA VCTS BKN005 OVC020CB
     FM261700 36005KT P6SM OVC020=

USA.gov is the U.S. government's official web portal to all federal, state and local government web resources and services.